Time;durP1;ratioP1;P1;durP2;ratioP2;P2;SDS_P1;SDS_P2;PMS_P1;PMS_P2;Temp;Humidity;BMP_temperature;BMP_pressure;BME280_temperature;BME280_humidity;BME280_pressure;Samples;Min_cycle;Max_cycle;Signal;HPM_P1;HPM_P2
2023/08/05 00:00:09;;;;;;;3.28;2.13;;;;;;;16.23;78.16;99859.63;5066683;28;20104;-60
2023/08/05 00:02:35;;;;;;;10.38;1.92;;;;;;;16.27;77.86;99858.59;5066801;28;20025;-60
2023/08/05 00:05:00;;;;;;;12.02;2.30;;;;;;;16.30;77.64;99861.09;5066597;28;20108;-59
2023/08/05 00:07:25;;;;;;;7.20;1.60;;;;;;;16.27;77.62;99865.59;5066410;28;20057;-60
2023/08/05 00:09:51;;;;;;;9.00;2.38;;;;;;;16.25;77.52;99864.81;5066115;28;20020;-60
2023/08/05 00:12:16;;;;;;;7.85;2.20;;;;;;;16.24;77.21;99863.97;5064904;28;20187;-60
2023/08/05 00:14:42;;;;;;;4.97;2.20;;;;;;;16.23;77.41;99860.50;5066504;28;20347;-60
2023/08/05 00:17:07;;;;;;;12.63;2.13;;;;;;;16.24;77.18;99866.59;5066329;28;20021;-60
2023/08/05 00:19:32;;;;;;;12.73;2.20;;;;;;;16.18;76.96;99861.59;5066230;28;20508;-60
2023/08/05 00:21:58;;;;;;;5.22;1.65;;;;;;;16.20;76.93;99852.75;5066517;28;20052;-59
2023/08/05 00:24:23;;;;;;;5.25;1.65;;;;;;;16.17;76.82;99849.41;5066156;28;20051;-60
2023/08/05 00:26:48;;;;;;;8.68;2.08;;;;;;;16.17;76.83;99855.50;5066077;28;20021;-59
2023/08/05 00:29:14;;;;;;;7.93;1.52;;;;;;;16.17;76.85;99852.88;5066141;28;20025;-60
2023/08/05 00:31:39;;;;;;;4.57;1.58;;;;;;;16.16;76.82;99855.56;5066371;28;20446;-59
2023/08/05 00:34:05;;;;;;;6.15;2.10;;;;;;;16.12;77.05;99856.63;5065961;28;20084;-59
2023/08/05 00:36:30;;;;;;;4.68;1.42;;;;;;;16.09;76.90;99854.97;5066091;28;20466;-60
2023/08/05 00:38:55;;;;;;;3.45;1.60;;;;;;;16.10;76.90;99860.13;5065674;28;20053;-59
2023/08/05 00:41:21;;;;;;;7.55;1.88;;;;;;;16.07;77.24;99855.00;5064575;28;20021;-59
2023/08/05 00:43:46;;;;;;;3.13;2.20;;;;;;;16.12;77.09;99867.09;5066051;28;20024;-59
2023/08/05 00:46:13;;;;;;;13.52;2.10;;;;;;;16.05;77.16;99856.00;5065873;28;20102;-59
2023/08/05 00:48:39;;;;;;;6.95;1.92;;;;;;;16.01;77.62;99863.13;5065785;28;20476;-59
2023/08/05 00:51:07;;;;;;;4.05;1.80;;;;;;;15.92;77.86;99859.09;5065848;28;20080;-58
2023/08/05 00:53:35;;;;;;;4.32;1.52;;;;;;;15.90;78.27;99865.28;5064800;28;20095;-60
2023/08/05 00:56:01;;;;;;;3.67;1.75;;;;;;;15.86;78.26;99870.63;5065518;28;20045;-60
2023/08/05 00:58:28;;;;;;;7.28;1.60;;;;;;;15.82;78.48;99861.22;5065526;28;20036;-59
2023/08/05 01:00:54;;;;;;;10.43;2.25;;;;;;;15.79;78.75;99861.34;5065826;28;20561;-59
2023/08/05 01:03:19;;;;;;;3.95;1.52;;;;;;;15.77;78.87;99863.16;5065554;28;20024;-60
2023/08/05 01:05:48;;;;;;;7.38;1.85;;;;;;;15.69;79.08;99855.59;5065268;28;20024;-60
2023/08/05 01:08:14;;;;;;;8.15;2.22;;;;;;;15.67;79.61;99862.66;5064869;28;20017;-59
2023/08/05 01:10:39;;;;;;;4.20;1.48;;;;;;;15.63;79.73;99868.06;5064964;28;20685;-58
2023/08/05 01:13:05;;;;;;;1.75;1.20;;;;;;;15.61;80.13;99865.50;5064362;28;20489;-59
2023/08/05 01:15:30;;;;;;;12.05;2.40;;;;;;;15.55;80.41;99857.88;5065454;28;20067;-59
2023/08/05 01:17:57;;;;;;;8.05;1.80;;;;;;;15.52;80.43;99865.84;5065283;28;20086;-61
2023/08/05 01:20:33;;;;;;;4.05;1.70;;;;;;;15.47;80.72;99871.25;5063329;28;20465;-60
2023/08/05 01:23:07;;;;;;;6.20;2.47;;;;;;;15.47;80.80;99876.50;5065639;28;20035;-60
2023/08/05 01:25:33;;;;;;;10.13;1.67;;;;;;;15.47;80.73;99872.13;5065230;28;20058;-60
2023/08/05 01:28:02;;;;;;;7.22;1.90;;;;;;;15.51;80.25;99872.00;5063850;28;20088;-60
2023/08/05 01:30:29;;;;;;;5.05;2.42;;;;;;;15.47;80.50;99869.50;5065188;28;20047;-60
2023/08/05 01:32:57;;;;;;;5.10;2.53;;;;;;;15.53;80.33;99871.03;5065017;28;20028;-60
2023/08/05 01:35:23;;;;;;;9.82;2.65;;;;;;;15.54;80.25;99880.59;5065016;28;20025;-59
2023/08/05 01:37:49;;;;;;;9.07;2.95;;;;;;;15.53;80.07;99878.88;5064583;28;20051;-59
2023/08/05 01:40:16;;;;;;;9.77;3.28;;;;;;;15.48;80.22;99879.03;5064955;28;20090;-58
2023/08/05 01:42:42;;;;;;;5.43;1.58;;;;;;;15.44;80.77;99877.47;5064747;28;20037;-59
2023/08/05 01:45:07;;;;;;;6.60;2.33;;;;;;;15.33;81.28;99864.78;5064848;28;20439;-60
2023/08/05 01:47:33;;;;;;;6.35;1.60;;;;;;;15.42;81.08;99879.28;5064833;28;20470;-59
2023/08/05 01:49:59;;;;;;;11.93;2.47;;;;;;;15.43;80.86;99882.75;5064787;28;20310;-59
2023/08/05 01:52:24;;;;;;;6.22;1.98;;;;;;;15.35;81.30;99873.41;5064838;28;20085;-59
2023/08/05 01:54:49;;;;;;;2.60;1.38;;;;;;;15.33;81.78;99883.09;5064804;28;20115;-60
2023/08/05 01:57:15;;;;;;;10.63;1.77;;;;;;;15.33;82.41;99883.09;5064619;28;20047;-60
2023/08/05 01:59:40;;;;;;;9.63;2.28;;;;;;;15.31;82.60;99882.28;5064534;28;20029;-60
2023/08/05 02:02:06;;;;;;;3.88;1.70;;;;;;;15.32;82.46;99881.38;5064822;28;20029;-59
2023/08/05 02:04:31;;;;;;;3.38;1.55;;;;;;;15.32;82.70;99883.16;5064613;28;20036;-60
2023/08/05 02:06:57;;;;;;;6.60;2.45;;;;;;;15.31;82.71;99877.06;5064698;28;20166;-59
2023/08/05 02:09:22;;;;;;;5.38;1.67;;;;;;;15.33;82.75;99874.41;5064664;28;20437;-60
2023/08/05 02:11:48;;;;;;;3.63;1.80;;;;;;;15.31;83.18;99877.06;5064425;28;20029;-60
2023/08/05 02:14:13;;;;;;;4.97;2.22;;;;;;;15.32;82.84;99873.53;5064924;28;20017;-59
2023/08/05 02:16:39;;;;;;;3.75;1.75;;;;;;;15.38;82.65;99871.59;5064378;28;20060;-60
2023/08/05 02:19:04;;;;;;;16.52;2.53;;;;;;;15.36;82.79;99867.28;5064340;28;20018;-60
2023/08/05 02:21:29;;;;;;;4.18;2.08;;;;;;;15.36;82.67;99864.69;5064471;28;20060;-59
2023/08/05 02:23:55;;;;;;;7.70;2.20;;;;;;;15.35;82.71;99868.19;5064351;28;20029;-58
2023/08/05 02:26:20;;;;;;;5.20;2.35;;;;;;;15.33;83.03;99870.03;5064404;28;20063;-59
2023/08/05 02:28:46;;;;;;;6.55;1.75;;;;;;;15.38;83.10;99882.06;5064606;28;20021;-60
2023/08/05 02:31:13;;;;;;;5.75;1.85;;;;;;;15.34;83.25;99882.19;5064469;28;20017;-59
2023/08/05 02:33:38;;;;;;;4.45;2.33;;;;;;;15.40;83.65;99877.66;5067491;28;20473;-60
2023/08/05 02:36:04;;;;;;;13.60;2.80;;;;;;;15.35;83.69;99870.81;5068483;28;20528;-60
2023/08/05 02:38:29;;;;;;;5.97;2.33;;;;;;;15.37;83.91;99881.22;5068006;28;20040;-60
2023/08/05 02:40:55;;;;;;;3.13;1.55;;;;;;;15.36;84.17;99875.13;5068193;28;20033;-60
2023/08/05 02:43:21;;;;;;;10.77;2.08;;;;;;;15.35;84.01;99862.94;5068267;28;20025;-60
2023/08/05 02:45:57;;;;;;;8.18;2.10;;;;;;;15.37;84.19;99868.13;5068170;28;20025;-60
2023/08/05 02:48:23;;;;;;;8.50;2.08;;;;;;;15.36;84.46;99869.06;5068214;28;20033;-60
2023/08/05 02:50:50;;;;;;;3.15;1.90;;;;;;;15.42;84.05;99875.81;5068094;28;20016;-60
2023/08/05 02:53:16;;;;;;;3.65;1.52;;;;;;;15.40;84.26;99878.47;5067997;28;20025;-59
2023/08/05 02:55:41;;;;;;;3.70;2.17;;;;;;;15.42;84.11;99883.66;5067735;28;20047;-59
2023/08/05 02:58:07;;;;;;;6.85;2.92;;;;;;;15.42;84.29;99884.50;5067765;28;20021;-59
2023/08/05 03:00:33;;;;;;;11.82;2.60;;;;;;;15.42;84.33;99888.88;5067941;28;20031;-59
2023/08/05 03:02:58;;;;;;;14.95;2.47;;;;;;;15.45;83.96;99889.63;5067584;28;20040;-59
2023/08/05 03:05:24;;;;;;;2.45;1.75;;;;;;;15.46;84.08;99893.09;5067838;28;20393;-59
2023/08/05 03:07:49;;;;;;;6.47;2.17;;;;;;;15.41;84.34;99893.28;5067756;28;20021;-59
2023/08/05 03:10:15;;;;;;;15.93;2.50;;;;;;;15.44;84.61;99898.41;5067625;28;20044;-59
2023/08/05 03:12:40;;;;;;;10.60;2.70;;;;;;;15.41;84.63;99892.41;5067685;28;20024;-59
2023/08/05 03:15:06;;;;;;;4.50;2.03;;;;;;;15.43;84.83;99895.84;5067701;28;20045;-59
2023/08/05 03:17:32;;;;;;;8.65;2.17;;;;;;;15.44;84.52;99893.16;5067547;28;20021;-59
2023/08/05 03:19:58;;;;;;;11.65;2.70;;;;;;;15.42;85.00;99892.34;5067394;28;20386;-60
2023/08/05 03:22:24;;;;;;;9.85;2.45;;;;;;;15.41;84.97;99889.81;5067540;28;20025;-59
2023/08/05 03:24:49;;;;;;;13.75;2.63;;;;;;;15.37;85.20;99891.66;5067424;28;20067;-59
2023/08/05 03:27:14;;;;;;;5.70;1.83;;;;;;;15.38;85.13;99900.38;5067091;28;20473;-59
2023/08/05 03:29:40;;;;;;;2.35;1.30;;;;;;;15.40;84.94;99895.94;5067364;28;20047;-59
2023/08/05 03:32:05;;;;;;;7.97;2.55;;;;;;;15.39;84.95;99895.09;5067409;28;20045;-59
2023/08/05 03:34:31;;;;;;;4.88;1.90;;;;;;;15.40;85.32;99894.16;5066965;28;20032;-59
2023/08/05 03:36:56;;;;;;;4.38;1.40;;;;;;;15.44;85.12;99892.31;5066980;28;20051;-60
2023/08/05 03:39:22;;;;;;;6.68;1.98;;;;;;;15.39;85.45;99892.47;5067283;28;20021;-59
2023/08/05 03:41:47;;;;;;;9.75;2.13;;;;;;;15.42;85.36;99888.88;5066740;28;20017;-59
2023/08/05 03:44:13;;;;;;;6.00;1.95;;;;;;;15.44;85.26;99902.75;5066426;28;20461;-60
2023/08/05 03:46:39;;;;;;;2.25;1.20;;;;;;;15.45;84.88;99904.47;5067340;28;20082;-60
2023/08/05 03:49:04;;;;;;;7.60;1.73;;;;;;;15.43;85.08;99908.91;5067002;28;20059;-60
2023/08/05 03:51:30;;;;;;;7.45;2.47;;;;;;;15.37;84.89;99904.75;5067066;28;20060;-59
2023/08/05 03:53:56;;;;;;;6.03;1.55;;;;;;;15.42;85.15;99904.56;5066700;28;20039;-59
2023/08/05 03:56:24;;;;;;;2.60;1.73;;;;;;;15.44;85.00;99915.84;5066258;28;20035;-59
2023/08/05 03:58:51;;;;;;;9.32;2.13;;;;;;;15.39;85.05;99908.16;5066721;28;20017;-58
2023/08/05 04:01:17;;;;;;;14.45;2.28;;;;;;;15.41;84.81;99906.34;5065596;28;20028;-59
2023/08/05 04:03:43;;;;;;;6.70;2.47;;;;;;;15.44;84.61;99911.47;5066573;28;20084;-59
2023/08/05 04:06:11;;;;;;;4.30;1.42;;;;;;;15.46;84.42;99914.88;5066646;28;20017;-59
2023/08/05 04:08:38;;;;;;;9.57;2.85;;;;;;;15.47;84.51;99910.50;5066622;28;20021;-60
2023/08/05 04:11:05;;;;;;;9.07;3.10;;;;;;;15.47;84.17;99913.13;5066631;28;20496;-59
2023/08/05 04:13:31;;;;;;;8.52;1.85;;;;;;;15.49;84.37;99917.38;5066686;28;20025;-60
2023/08/05 04:15:59;;;;;;;7.57;1.70;;;;;;;15.48;83.95;99928.75;5066737;28;20024;-59
2023/08/05 04:18:25;;;;;;;2.78;1.45;;;;;;;15.43;83.84;99924.59;5066689;28;20020;-58
2023/08/05 04:20:51;;;;;;;7.10;2.28;;;;;;;15.41;84.09;99926.41;5066822;28;20036;-60
2023/08/05 04:23:21;;;;;;;6.55;1.70;;;;;;;15.39;84.06;99930.84;5066491;28;20450;-59
2023/08/05 04:25:47;;;;;;;5.65;2.03;;;;;;;15.38;84.21;99939.59;5066594;28;20063;-60
2023/08/05 04:28:13;;;;;;;5.70;1.83;;;;;;;15.33;83.98;99935.41;5066740;28;20025;-60
2023/08/05 04:30:40;;;;;;;8.45;1.85;;;;;;;15.39;83.83;99936.94;5066455;28;20088;-60
2023/08/05 04:33:06;;;;;;;5.30;1.88;;;;;;;15.39;83.93;99942.16;5066409;28;20080;-60
2023/08/05 04:35:32;;;;;;;5.07;1.50;;;;;;;15.44;83.39;99944.63;5066409;28;20028;-60
2023/08/05 04:37:57;;;;;;;6.28;2.25;;;;;;;15.43;83.53;99942.91;5066189;28;20048;-60
2023/08/05 04:40:22;;;;;;;8.48;2.35;;;;;;;15.44;83.41;99955.06;5064884;28;20504;-60
2023/08/05 04:42:48;;;;;;;5.50;1.75;;;;;;;15.42;83.55;99949.03;5066005;28;20052;-60
2023/08/05 04:45:14;;;;;;;4.55;2.33;;;;;;;15.47;83.21;99955.81;5066385;28;20028;-60
2023/08/05 04:47:41;;;;;;;12.13;2.20;;;;;;;15.48;82.87;99954.03;5066101;28;20024;-59
2023/08/05 04:50:06;;;;;;;6.18;2.33;;;;;;;15.52;82.91;99960.91;5066118;28;20104;-59
2023/08/05 04:52:32;;;;;;;2.60;1.90;;;;;;;15.51;82.69;99958.34;5065972;28;20025;-60
2023/08/05 04:55:09;;;;;;;4.57;2.50;;;;;;;15.48;82.66;99957.53;5065324;28;20047;-60
2023/08/05 04:57:35;;;;;;;7.90;1.98;;;;;;;15.52;82.39;99958.28;5065633;28;20060;-59
2023/08/05 05:00:01;;;;;;;2.00;1.58;;;;;;;15.48;82.06;99961.91;5065781;28;20029;-60
2023/08/05 05:02:26;;;;;;;6.63;1.42;;;;;;;15.47;82.00;99958.44;5065926;28;20040;-60
2023/08/05 05:04:51;;;;;;;8.23;2.20;;;;;;;15.46;81.80;99956.72;5065736;28;20022;-59
2023/08/05 05:07:18;;;;;;;2.58;1.92;;;;;;;15.44;81.68;99945.47;5065797;28;20040;-60
2023/08/05 05:09:43;;;;;;;2.95;1.63;;;;;;;15.55;81.39;99958.16;5065557;28;20021;-59
2023/08/05 05:12:09;;;;;;;2.95;1.90;;;;;;;15.57;80.94;99951.13;5065510;28;20051;-59
2023/08/05 05:14:34;;;;;;;6.55;2.20;;;;;;;15.64;80.58;99958.75;5065675;28;20437;-59
2023/08/05 05:17:00;;;;;;;1.92;1.17;;;;;;;15.62;80.16;99958.81;5065578;28;20151;-59
2023/08/05 05:19:25;;;;;;;12.32;2.13;;;;;;;15.70;80.04;99956.72;5065427;28;20045;-59
2023/08/05 05:21:50;;;;;;;2.88;1.60;;;;;;;15.71;79.68;99965.44;5065534;28;20071;-59
2023/08/05 05:24:16;;;;;;;8.43;2.00;;;;;;;15.72;79.50;99975.00;5065357;28;20215;-59
2023/08/05 05:26:41;;;;;;;6.05;1.85;;;;;;;15.72;79.24;99981.09;5065101;28;20112;-59
2023/08/05 05:29:07;;;;;;;6.07;2.33;;;;;;;15.73;79.25;99982.78;5065379;28;20021;-59
2023/08/05 05:31:32;;;;;;;9.63;1.42;;;;;;;15.65;78.84;99982.22;5065290;28;20021;-59
2023/08/05 05:33:58;;;;;;;4.97;1.63;;;;;;;15.56;78.64;99974.72;5065443;28;20108;-59
2023/08/05 05:36:24;;;;;;;6.78;1.80;;;;;;;15.51;79.15;99981.88;5063863;28;20044;-59
2023/08/05 05:38:49;;;;;;;2.72;1.77;;;;;;;15.51;78.95;99971.41;5064885;28;20041;-61
2023/08/05 05:41:16;;;;;;;6.40;1.42;;;;;;;15.48;79.00;99970.59;5065010;28;20036;-58
2023/08/05 05:43:42;;;;;;;8.48;1.95;;;;;;;15.49;78.82;99974.91;5065176;28;20481;-59
2023/08/05 05:46:07;;;;;;;4.50;1.65;;;;;;;15.55;78.93;99973.84;5065317;28;20037;-59
2023/08/05 05:48:33;;;;;;;2.10;1.90;;;;;;;15.53;78.59;99975.66;5065096;28;20023;-59
2023/08/05 05:50:58;;;;;;;4.95;2.10;;;;;;;15.50;78.59;99970.56;5064971;28;20104;-58
2023/08/05 05:53:23;;;;;;;7.70;2.10;;;;;;;15.56;78.72;99977.34;5065081;28;20480;-58
2023/08/05 05:55:55;;;;;;;4.43;1.33;;;;;;;15.58;78.57;99973.75;5064844;28;20089;-59
2023/08/05 05:58:20;;;;;;;8.57;1.92;;;;;;;15.59;78.60;99985.06;5064941;28;20108;-59
2023/08/05 06:00:46;;;;;;;6.18;1.98;;;;;;;15.60;78.40;99981.53;5064875;28;20059;-59
2023/08/05 06:03:11;;;;;;;5.20;1.65;;;;;;;15.63;78.42;99991.03;5064863;28;20036;-59
2023/08/05 06:05:37;;;;;;;4.68;1.05;;;;;;;15.61;78.12;99989.34;5064995;28;20052;-57
2023/08/05 06:08:02;;;;;;;6.85;2.13;;;;;;;15.60;77.45;99992.88;5067787;28;20025;-59
2023/08/05 06:10:28;;;;;;;6.70;1.70;;;;;;;15.61;77.51;99983.22;5069137;28;20025;-59
2023/08/05 06:12:53;;;;;;;4.10;1.67;;;;;;;15.66;77.77;99993.53;5068928;28;20059;-59
2023/08/05 06:15:18;;;;;;;3.13;1.30;;;;;;;15.71;77.48;99989.84;5068904;28;20063;-60
2023/08/05 06:17:46;;;;;;;3.28;1.63;;;;;;;15.80;77.02;99998.28;5068960;28;20025;-60
2023/08/05 06:20:11;;;;;;;3.30;1.10;;;;;;;15.79;77.03;99994.81;5068938;28;20373;-60
2023/08/05 06:22:37;;;;;;;8.02;2.13;;;;;;;15.83;76.85;99998.16;5068864;28;20469;-59
2023/08/05 06:25:02;;;;;;;6.78;2.15;;;;;;;15.77;75.79;99995.78;5068814;28;20025;-59
2023/08/05 06:27:28;;;;;;;8.63;2.15;;;;;;;15.79;75.67;99986.94;5068600;28;20028;-59
2023/08/05 06:29:53;;;;;;;4.22;1.67;;;;;;;15.77;75.73;99980.91;5068473;28;20017;-59
2023/08/05 06:32:19;;;;;;;10.70;2.78;;;;;;;15.80;75.30;99993.06;5068708;28;20025;-60
2023/08/05 06:34:44;;;;;;;4.93;1.60;;;;;;;15.81;75.34;99984.28;5068695;28;20024;-60
2023/08/05 06:37:09;;;;;;;2.50;1.20;;;;;;;15.83;74.39;99999.00;5068530;28;20056;-59
2023/08/05 06:39:35;;;;;;;5.75;2.08;;;;;;;15.87;74.31;99994.50;5068340;28;20021;-59
2023/08/05 06:42:00;;;;;;;4.45;1.27;;;;;;;15.89;73.91;99989.22;5068334;28;20032;-59
2023/08/05 06:44:26;;;;;;;4.43;1.55;;;;;;;15.98;74.19;99986.28;5068546;28;20088;-59
2023/08/05 06:46:52;;;;;;;6.60;1.02;;;;;;;16.07;74.20;99992.97;5068481;28;20017;-57
2023/08/05 06:49:17;;;;;;;3.05;1.58;;;;;;;16.10;73.04;99991.06;5066943;28;20029;-58
2023/08/05 06:51:42;;;;;;;5.63;1.27;;;;;;;16.17;72.79;99990.81;5068418;28;20025;-57
2023/08/05 06:54:10;;;;;;;4.45;1.42;;;;;;;16.23;73.01;99998.44;5068233;28;20101;-58
2023/08/05 06:56:36;;;;;;;3.65;1.23;;;;;;;16.27;73.00;99988.69;5068072;28;20032;-57
2023/08/05 06:59:01;;;;;;;3.67;1.60;;;;;;;16.30;72.26;99991.19;5067985;28;20025;-59
2023/08/05 07:01:27;;;;;;;5.82;1.88;;;;;;;16.29;71.10;99984.25;5068203;28;20077;-58
2023/08/05 07:03:52;;;;;;;11.10;1.20;;;;;;;16.23;71.00;99982.72;5067971;28;20112;-58
2023/08/05 07:06:18;;;;;;;5.03;1.00;;;;;;;16.28;70.04;99998.28;5068094;28;20029;-59
2023/08/05 07:08:43;;;;;;;2.22;0.68;;;;;;;16.25;70.13;100004.47;5067847;28;20062;-59
2023/08/05 07:11:09;;;;;;;4.47;1.35;;;;;;;16.23;69.91;100009.78;5067762;28;20032;-59
2023/08/05 07:13:34;;;;;;;8.38;2.50;;;;;;;16.30;69.69;100013.00;5067957;28;20035;-59
2023/08/05 07:16:01;;;;;;;8.27;1.67;;;;;;;16.40;69.82;100007.41;5067716;28;20028;-59
2023/08/05 07:18:27;;;;;;;1.02;0.70;;;;;;;16.51;69.67;100015.72;5066603;28;20032;-59
2023/08/05 07:20:52;;;;;;;6.45;1.30;;;;;;;16.62;69.71;100011.78;5068097;28;20017;-59
2023/08/05 07:23:18;;;;;;;2.00;1.08;;;;;;;16.71;69.08;100006.16;5067767;28;20469;-59
2023/08/05 07:25:43;;;;;;;4.20;1.40;;;;;;;16.84;69.01;100007.38;5067717;28;20461;-58
2023/08/05 07:28:09;;;;;;;1.52;0.90;;;;;;;17.01;69.21;100007.59;5067369;28;20021;-57
2023/08/05 07:30:34;;;;;;;3.53;1.38;;;;;;;17.08;68.36;100009.94;5067460;28;20029;-58
2023/08/05 07:33:00;;;;;;;3.70;0.95;;;;;;;17.15;67.84;100015.78;5067804;28;20027;-59
2023/08/05 07:35:28;;;;;;;6.93;1.25;;;;;;;17.14;67.05;100014.06;5067447;28;20024;-58
2023/08/05 07:37:55;;;;;;;2.38;1.33;;;;;;;17.15;66.83;100026.28;5067227;28;20049;-60
2023/08/05 07:40:24;;;;;;;3.38;1.15;;;;;;;17.24;66.42;100024.19;5067290;28;20025;-59
2023/08/05 07:42:49;;;;;;;7.90;1.70;;;;;;;17.26;65.97;100027.56;5067054;28;20025;-58
2023/08/05 07:45:18;;;;;;;10.15;2.25;;;;;;;17.28;65.34;100025.75;5067419;28;20384;-58
2023/08/05 07:47:45;;;;;;;1.45;0.88;;;;;;;17.28;65.14;100025.75;5067468;28;20025;-59
2023/08/05 07:50:11;;;;;;;4.95;1.17;;;;;;;17.32;64.85;100036.03;5067288;28;20017;-59
2023/08/05 07:52:37;;;;;;;2.25;1.50;;;;;;;17.40;64.52;100040.97;5067341;28;20104;-59
2023/08/05 07:55:04;;;;;;;5.28;1.33;;;;;;;17.60;64.85;100049.75;5067420;28;20089;-59
2023/08/05 07:57:30;;;;;;;10.98;1.48;;;;;;;17.66;63.77;100048.63;5067215;28;20053;-59
2023/08/05 07:59:57;;;;;;;5.00;1.52;;;;;;;17.76;64.32;100054.31;5067128;28;20064;-59
2023/08/05 08:02:24;;;;;;;1.75;1.20;;;;;;;18.27;63.61;100046.81;5067326;28;20024;-59
2023/08/05 08:04:53;;;;;;;3.85;1.25;;;;;;;18.80;61.83;100049.56;5067050;28;20029;-59
2023/08/05 08:07:18;;;;;;;3.35;1.17;;;;;;;18.93;60.43;100059.50;5067102;28;20025;-59
2023/08/05 08:09:43;;;;;;;6.63;1.10;;;;;;;18.87;59.85;100062.41;5066676;28;20433;-59
2023/08/05 08:12:09;;;;;;;6.88;1.40;;;;;;;18.79;60.10;100061.00;5066818;28;20025;-60
2023/08/05 08:14:34;;;;;;;4.13;1.20;;;;;;;18.71;58.89;100076.31;5066790;28;20021;-59
2023/08/05 08:17:00;;;;;;;2.38;1.35;;;;;;;18.62;59.82;100076.75;5066704;28;20017;-59
2023/08/05 08:19:25;;;;;;;4.43;1.20;;;;;;;18.63;60.34;100081.06;5066695;28;20025;-57
2023/08/05 08:21:51;;;;;;;4.57;1.20;;;;;;;18.56;59.87;100084.00;5066834;28;20021;-59
2023/08/05 08:24:16;;;;;;;3.00;1.40;;;;;;;18.48;60.03;100075.63;5065509;28;20062;-59
2023/08/05 08:26:42;;;;;;;3.42;1.17;;;;;;;18.39;60.28;100083.94;5066433;28;20021;-58
2023/08/05 08:29:07;;;;;;;5.47;0.88;;;;;;;18.32;60.00;100092.09;5066409;28;20019;-61
2023/08/05 08:31:33;;;;;;;4.57;1.08;;;;;;;18.22;59.69;100088.19;5066367;28;20084;-60
2023/08/05 08:33:59;;;;;;;1.50;0.93;;;;;;;18.06;59.71;100096.75;5066327;28;20048;-60
2023/08/05 08:36:25;;;;;;;4.38;1.73;;;;;;;18.00;60.08;100107.53;5066488;28;20469;-61
2023/08/05 08:38:50;;;;;;;1.45;1.00;;;;;;;18.08;60.75;100108.00;5065704;28;20049;-61
2023/08/05 08:41:16;;;;;;;2.53;1.50;;;;;;;18.08;60.49;100105.38;5065986;28;20017;-60
2023/08/05 08:43:44;;;;;;;6.55;1.27;;;;;;;18.04;60.43;100108.22;5066075;28;20052;-60
2023/08/05 08:46:11;;;;;;;3.38;1.20;;;;;;;18.00;60.40;100111.91;5066191;28;20422;-61
2023/08/05 08:48:37;;;;;;;18.45;1.42;;;;;;;18.03;60.33;100117.91;5066144;28;20088;-60
2023/08/05 08:51:03;;;;;;;2.38;1.00;;;;;;;18.12;59.74;100123.66;5066023;28;20080;-60
2023/08/05 08:53:31;;;;;;;3.80;1.30;;;;;;;18.12;59.17;100121.91;5066201;28;20029;-61
2023/08/05 08:55:57;;;;;;;6.18;1.27;;;;;;;18.17;59.39;100119.94;5065839;28;20028;-62
2023/08/05 08:58:22;;;;;;;8.32;1.20;;;;;;;18.17;58.53;100127.81;5065777;28;20020;-61
2023/08/05 09:00:49;;;;;;;4.50;1.58;;;;;;;18.16;58.12;100127.88;5065760;28;20074;-62
2023/08/05 09:03:15;;;;;;;4.45;0.88;;;;;;;18.15;58.39;100132.28;5065972;28;20032;-61
2023/08/05 09:05:46;;;;;;;3.50;0.93;;;;;;;18.27;57.28;100133.50;5066004;28;20424;-64
2023/08/05 09:08:12;;;;;;;2.88;0.90;;;;;;;18.56;57.79;100131.31;5065983;28;20412;-60
2023/08/05 09:10:38;;;;;;;1.52;1.02;;;;;;;18.80;57.13;100140.75;5065727;28;20085;-61
2023/08/05 09:13:05;;;;;;;1.70;1.00;;;;;;;18.83;56.52;100136.19;5065617;28;20029;-64
2023/08/05 09:15:32;;;;;;;3.17;0.77;;;;;;;19.03;56.25;100144.91;5065473;28;20021;-58
2023/08/05 09:17:58;;;;;;;2.15;1.23;;;;;;;19.14;55.37;100152.31;5065658;28;20029;-59
2023/08/05 09:20:24;;;;;;;7.18;0.88;;;;;;;19.10;55.31;100155.16;5065168;28;20100;-59
2023/08/05 09:22:57;;;;;;;4.47;1.40;;;;;;;19.08;55.44;100156.06;5065288;28;20029;-57
2023/08/05 09:25:23;;;;;;;6.38;1.20;;;;;;;19.05;54.78;100161.47;5065667;28;20017;-57
2023/08/05 09:27:53;;;;;;;1.63;0.82;;;;;;;19.16;55.28;100171.53;5065490;28;20039;-59
2023/08/05 09:30:21;;;;;;;2.28;1.00;;;;;;;19.29;55.33;100171.78;5065396;28;20021;-59
2023/08/05 09:32:47;;;;;;;3.15;1.00;;;;;;;19.29;54.47;100163.88;5065648;28;20024;-58
2023/08/05 09:35:13;;;;;;;6.28;1.00;;;;;;;19.16;54.33;100163.63;5065466;28;20108;-59
2023/08/05 09:37:51;;;;;;;4.18;1.10;;;;;;;19.06;55.15;100164.94;5065072;28;20051;-59
2023/08/05 09:40:22;;;;;;;5.38;0.70;;;;;;;18.93;54.86;100170.81;5065182;28;20025;-56
2023/08/05 09:42:50;;;;;;;6.72;1.25;;;;;;;18.86;55.08;100171.16;5064426;28;20017;-58
2023/08/05 09:45:17;;;;;;;1.30;0.93;;;;;;;18.96;55.20;100175.09;5065306;28;20060;-59
2023/08/05 09:47:46;;;;;;;1.95;0.98;;;;;;;19.02;55.24;100171.28;5065247;28;20028;-60
2023/08/05 09:50:15;;;;;;;6.57;1.20;;;;;;;19.26;54.52;100166.66;5063827;28;20021;-59
2023/08/05 09:52:42;;;;;;;2.60;0.93;;;;;;;19.32;54.11;100174.25;5065152;28;20441;-59
2023/08/05 09:55:13;;;;;;;1.23;0.95;;;;;;;19.43;55.09;100167.59;5065046;28;20029;-59
2023/08/05 09:57:39;;;;;;;3.47;0.98;;;;;;;19.59;54.71;100162.41;5064875;28;20025;-59
2023/08/05 10:00:08;;;;;;;2.53;1.23;;;;;;;19.55;53.58;100159.09;5065067;28;20040;-59
2023/08/05 10:02:34;;;;;;;2.78;1.05;;;;;;;19.59;54.38;100161.56;5065031;28;20044;-59
2023/08/05 10:05:01;;;;;;;2.72;0.60;;;;;;;19.80;54.98;100159.63;5065124;28;20035;-60
2023/08/05 10:07:29;;;;;;;1.63;0.90;;;;;;;19.83;53.00;100167.38;5063790;28;20543;-59
2023/08/05 10:09:56;;;;;;;2.25;0.82;;;;;;;19.67;53.31;100162.03;5064574;28;20025;-59
2023/08/05 10:12:32;;;;;;;5.05;1.30;;;;;;;19.92;53.78;100152.88;5064843;28;20025;-59
2023/08/05 10:15:00;;;;;;;2.33;1.02;;;;;;;21.15;52.07;100153.41;5065309;28;20025;-59
2023/08/05 10:17:26;;;;;;;6.90;1.33;;;;;;;21.87;48.65;100144.81;5064922;28;20044;-59
2023/08/05 10:19:52;;;;;;;0.63;0.60;;;;;;;22.69;47.61;100147.81;5064996;28;20032;-59
2023/08/05 10:22:23;;;;;;;2.88;1.27;;;;;;;23.47;47.06;100141.03;5064970;28;20021;-59
2023/08/05 10:24:56;;;;;;;3.13;0.65;;;;;;;24.36;45.29;100148.25;5064784;28;20044;-60
2023/08/05 10:27:43;;;;;;;3.72;1.23;;;;;;;25.08;43.12;100142.31;5064593;28;20052;-59
2023/08/05 10:30:16;;;;;;;1.85;1.17;;;;;;;24.55;41.45;100151.41;5064731;28;20101;-59
2023/08/05 10:32:52;;;;;;;2.03;0.75;;;;;;;23.37;42.56;100158.47;5065207;28;20021;-59
2023/08/05 10:35:31;;;;;;;3.13;0.68;;;;;;;22.20;44.87;100153.44;5064929;28;20013;-59
2023/08/05 10:38:14;;;;;;;1.02;0.70;;;;;;;21.41;47.00;100166.88;5064471;28;20106;-59
2023/08/05 10:40:44;;;;;;;1.17;0.95;;;;;;;20.95;47.84;100162.41;5064532;28;20100;-59
2023/08/05 10:43:12;;;;;;;1.30;0.73;;;;;;;20.41;49.01;100162.66;5064557;28;20029;-59
2023/08/05 10:45:42;;;;;;;3.83;1.25;;;;;;;20.00;50.38;100161.22;5064797;28;20021;-57
2023/08/05 10:48:10;;;;;;;1.60;0.90;;;;;;;19.90;51.40;100162.66;5064841;28;20029;-59
2023/08/05 10:50:38;;;;;;;2.20;0.80;;;;;;;19.88;51.87;100156.59;5064500;28;20029;-60
2023/08/05 10:53:09;;;;;;;1.58;0.90;;;;;;;19.92;51.73;100156.34;5065841;28;20047;-59
2023/08/05 10:55:46;;;;;;;7.00;1.52;;;;;;;19.90;52.33;100160.00;5068413;28;20025;-58
2023/08/05 10:58:12;;;;;;;2.05;0.80;;;;;;;19.89;52.29;100156.50;5068261;28;20020;-59
2023/08/05 11:00:45;;;;;;;4.13;0.88;;;;;;;19.86;52.55;100161.94;5068110;28;20080;-59
2023/08/05 11:03:42;;;;;;;4.00;1.20;;;;;;;19.86;51.46;100155.81;5068370;28;20021;-58
2023/08/05 11:06:09;;;;;;;4.88;0.98;;;;;;;19.89;51.66;100160.94;5068096;28;20104;-59
2023/08/05 11:08:39;;;;;;;1.50;0.77;;;;;;;19.99;50.88;100151.63;5067293;28;20025;-60
2023/08/05 11:11:08;;;;;;;2.60;0.80;;;;;;;20.18;50.10;100155.94;5067996;28;20040;-60
2023/08/05 11:13:38;;;;;;;1.67;0.70;;;;;;;20.27;49.64;100158.09;5067802;28;20028;-59
2023/08/05 11:16:08;;;;;;;3.03;0.85;;;;;;;20.35;49.77;100162.13;5067579;28;20024;-59
2023/08/05 11:18:34;;;;;;;4.95;1.02;;;;;;;20.47;49.96;100153.53;5067521;28;20028;-58
2023/08/05 11:21:02;;;;;;;1.95;0.65;;;;;;;20.62;50.21;100146.59;5067299;28;20024;-58
2023/08/05 11:23:28;;;;;;;1.67;0.73;;;;;;;20.57;48.73;100151.25;5067471;28;20025;-59
2023/08/05 11:25:54;;;;;;;3.75;1.23;;;;;;;20.50;49.54;100155.16;5067699;28;20036;-58